Time;durP1;ratioP1;P1;durP2;ratioP2;P2;SDS_P1;SDS_P2;PMS_P1;PMS_P2;Temp;Humidity;BMP_temperature;BMP_pressure;BME280_temperature;BME280_humidity;BME280_pressure;Samples;Min_cycle;Max_cycle;Signal;HPM_P1;HPM_P2
2022/10/13 00:00:06;;;;;;;;;;;14.40;99.90;;;;;;7336144;19;109454;-73
2022/10/13 00:02:33;;;;;;;;;;;14.50;99.90;;;;;;7338423;19;108488;-73
2022/10/13 00:05:00;;;;;;;;;;;14.50;99.90;;;;;;7336736;19;113236;-73
2022/10/13 00:07:27;;;;;;;;;;;14.40;99.90;;;;;;7338305;19;109845;-73
2022/10/13 00:09:53;;;;;;;;;;;14.40;99.90;;;;;;7337006;19;110301;-73
2022/10/13 00:12:20;;;;;;;;;;;14.40;99.90;;;;;;7337963;19;111623;-74
2022/10/13 00:14:47;;;;;;;;;;;14.40;99.90;;;;;;7339246;19;108402;-74
2022/10/13 00:17:14;;;;;;;;;;;14.40;99.90;;;;;;7339997;19;111292;-73
2022/10/13 00:19:41;;;;;;;;;;;14.40;99.90;;;;;;7338924;19;109068;-73
2022/10/13 00:22:08;;;;;;;;;;;14.40;99.90;;;;;;7340022;19;110215;-74
2022/10/13 00:24:35;;;;;;;;;;;14.40;99.90;;;;;;7334897;19;111999;-74
2022/10/13 00:27:02;;;;;;;;;;;14.40;99.90;;;;;;7338872;19;109577;-74
2022/10/13 00:29:29;;;;;;;;;;;14.40;99.90;;;;;;7337288;19;109906;-73
2022/10/13 00:31:56;;;;;;;;;;;14.40;99.90;;;;;;7337970;19;110647;-73
2022/10/13 00:34:23;;;;;;;;;;;14.40;99.90;;;;;;7338151;19;108404;-74
2022/10/13 00:36:49;;;;;;;;;;;14.40;99.90;;;;;;7335025;19;109455;-73
2022/10/13 00:39:16;;;;;;;;;;;14.40;99.90;;;;;;7340856;19;110294;-73
2022/10/13 00:41:44;;;;;;;;;;;14.40;99.90;;;;;;7339426;19;108316;-73
2022/10/13 00:44:31;;;;;;;;;;;14.40;99.90;;;;;;7336794;19;110665;-73
2022/10/13 00:46:57;;;;;;;;;;;14.40;99.90;;;;;;7331273;19;109624;-74
2022/10/13 00:49:24;;;;;;;;;;;14.40;99.90;;;;;;7335988;19;109396;-74
2022/10/13 00:51:51;;;;;;;;;;;14.40;99.90;;;;;;7335868;19;110074;-74
2022/10/13 00:54:20;;;;;;;;;;;14.40;99.90;;;;;;7336821;19;110220;-73
2022/10/13 00:56:49;;;;;;;;;;;14.40;99.90;;;;;;7336653;19;110398;-73
2022/10/13 00:59:22;;;;;;;;;;;14.40;99.90;;;;;;7331959;19;110840;-73
2022/10/13 01:01:50;;;;;;;;;;;14.40;99.90;;;;;;7341112;19;108913;-73
2022/10/13 01:04:18;;;;;;;;;;;14.40;99.90;;;;;;7335094;19;110677;-73
2022/10/13 01:06:45;;;;;;;;;;;14.40;99.90;;;;;;7335750;19;109322;-74
2022/10/13 01:09:12;;;;;;;;;;;14.40;99.90;;;;;;7334349;19;109330;-73
2022/10/13 01:11:41;;;;;;;;;;;14.40;99.90;;;;;;7335488;19;110558;-74
2022/10/13 01:14:28;;;;;;;;;;;14.50;99.90;;;;;;7337170;19;109878;-73
2022/10/13 01:17:13;;;;;;;;;;;14.40;99.90;;;;;;7331602;19;109269;-73
2022/10/13 01:20:04;;;;;;;;;;;14.40;99.90;;;;;;7334133;19;110069;-73
2022/10/13 01:22:55;;;;;;;;;;;14.40;99.90;;;;;;7334508;19;109039;-74
2022/10/13 01:25:34;;;;;;;;;;;14.50;99.90;;;;;;7339327;19;108989;-74
2022/10/13 01:28:09;;;;;;;;;;;14.50;99.90;;;;;;7336016;19;109490;-73
2022/10/13 01:30:40;;;;;;;;;;;14.50;99.90;;;;;;7335971;19;109256;-73
2022/10/13 01:33:12;;;;;;;;;;;14.50;99.90;;;;;;7335419;19;109156;-73
2022/10/13 01:35:55;;;;;;;;;;;14.40;99.90;;;;;;7333092;19;110293;-73
2022/10/13 01:38:22;;;;;;;;;;;14.40;99.90;;;;;;7332963;19;113229;-74
2022/10/13 01:41:02;;;;;;;;;;;14.40;99.90;;;;;;7334154;19;113467;-73
2022/10/13 01:43:29;;;;;;;;;;;14.40;99.90;;;;;;7333220;19;110842;-74
2022/10/13 01:46:02;;;;;;;;;;;14.40;99.90;;;;;;7336529;19;109093;-73
2022/10/13 01:48:30;;;;;;;;;;;14.40;99.90;;;;;;7338999;19;110507;-73
2022/10/13 01:50:58;;;;;;;;;;;14.40;99.90;;;;;;7336290;19;109187;-73
2022/10/13 01:53:26;;;;;;;;;;;14.40;99.90;;;;;;7333433;19;110190;-73
2022/10/13 01:55:54;;;;;;;;;;;14.40;99.90;;;;;;7334870;19;110794;-73
2022/10/13 01:58:22;;;;;;;;;;;14.40;99.90;;;;;;7333527;19;109013;-73
2022/10/13 02:00:56;;;;;;;;;;;14.40;99.90;;;;;;7333511;19;112451;-73
2022/10/13 02:03:27;;;;;;;;;;;14.40;99.90;;;;;;7334276;19;108534;-73
2022/10/13 02:06:01;;;;;;;;;;;14.40;99.90;;;;;;7331630;19;110558;-73
2022/10/13 02:08:28;;;;;;;;;;;14.40;99.90;;;;;;7333943;19;110186;-73
2022/10/13 02:11:04;;;;;;;;;;;14.40;99.90;;;;;;7337899;19;109760;-73
2022/10/13 02:13:33;;;;;;;;;;;14.40;99.90;;;;;;7335449;19;110250;-73
2022/10/13 02:16:00;;;;;;;;;;;14.40;99.90;;;;;;7333302;19;109547;-74
2022/10/13 02:18:30;;;;;;;;;;;14.40;99.90;;;;;;7333246;19;109501;-73
2022/10/13 02:20:57;;;;;;;;;;;14.40;99.90;;;;;;7332935;19;109394;-74
2022/10/13 02:23:25;;;;;;;;;;;14.40;99.90;;;;;;7334631;19;110682;-74
2022/10/13 02:25:52;;;;;;;;;;;14.30;99.90;;;;;;7332740;19;109333;-74
2022/10/13 02:28:19;;;;;;;;;;;14.40;99.90;;;;;;7331861;19;110251;-73
2022/10/13 02:30:46;;;;;;;;;;;14.40;99.90;;;;;;7339300;19;108338;-73
2022/10/13 02:33:14;;;;;;;;;;;14.40;99.90;;;;;;7334769;19;110752;-73
2022/10/13 02:35:41;;;;;;;;;;;14.40;99.90;;;;;;7333934;19;108903;-73
2022/10/13 02:38:08;;;;;;;;;;;14.40;99.90;;;;;;7333428;19;109431;-73
2022/10/13 02:40:36;;;;;;;;;;;14.40;99.90;;;;;;7329005;19;110701;-73
2022/10/13 02:43:03;;;;;;;;;;;14.40;99.90;;;;;;7331364;19;108623;-74
2022/10/13 02:45:29;;;;;;;;;;;14.40;99.90;;;;;;7334505;19;112402;-73
2022/10/13 02:47:57;;;;;;;;;;;14.40;99.90;;;;;;7335371;19;110219;-73
2022/10/13 02:50:24;;;;;;;;;;;14.40;99.90;;;;;;7339300;19;112536;-73
2022/10/13 02:52:51;;;;;;;;;;;14.40;99.90;;;;;;7346251;19;109374;-73
2022/10/13 02:55:18;;;;;;;;;;;14.30;99.90;;;;;;7338095;19;109100;-74
2022/10/13 02:57:45;;;;;;;;;;;14.40;99.90;;;;;;7341146;19;109364;-73
2022/10/13 03:00:12;;;;;;;;;;;14.40;99.90;;;;;;7338231;19;110519;-75
2022/10/13 03:02:39;;;;;;;;;;;14.30;99.90;;;;;;7338405;19;112206;-75
2022/10/13 03:05:06;;;;;;;;;;;14.40;99.90;;;;;;7337522;19;109039;-75
2022/10/13 03:07:33;;;;;;;;;;;14.40;99.90;;;;;;7336404;19;109251;-75
2022/10/13 03:10:01;;;;;;;;;;;14.30;99.90;;;;;;7340592;19;108816;-76
2022/10/13 03:12:27;;;;;;;;;;;14.30;99.90;;;;;;7338177;19;108887;-75
2022/10/13 03:14:54;;;;;;;;;;;14.30;99.90;;;;;;7345177;19;109266;-75
2022/10/13 03:17:21;;;;;;;;;;;14.30;99.90;;;;;;7336829;19;108559;-75
2022/10/13 03:19:48;;;;;;;;;;;14.30;99.90;;;;;;7337345;19;109891;-73
2022/10/13 03:22:15;;;;;;;;;;;14.30;99.90;;;;;;7338194;19;109640;-73
2022/10/13 03:24:42;;;;;;;;;;;14.30;99.90;;;;;;7339130;19;108887;-76
2022/10/13 03:27:09;;;;;;;;;;;14.30;99.90;;;;;;7338329;19;110369;-75
2022/10/13 03:29:36;;;;;;;;;;;14.30;99.90;;;;;;7340753;19;109588;-75
2022/10/13 03:32:03;;;;;;;;;;;14.30;99.90;;;;;;7337562;19;109194;-75
2022/10/13 03:34:30;;;;;;;;;;;14.20;99.90;;;;;;7338279;19;110547;-75
2022/10/13 03:36:57;;;;;;;;;;;14.30;99.90;;;;;;7341681;19;108888;-75
2022/10/13 03:39:24;;;;;;;;;;;14.20;99.90;;;;;;7338370;19;110454;-75
2022/10/13 03:41:51;;;;;;;;;;;14.20;99.90;;;;;;7340220;19;108476;-74
2022/10/13 03:44:17;;;;;;;;;;;14.20;99.90;;;;;;7338580;19;109323;-75
2022/10/13 03:46:44;;;;;;;;;;;14.20;99.90;;;;;;7336434;19;111361;-75
2022/10/13 03:49:11;;;;;;;;;;;14.20;99.90;;;;;;7339365;19;108746;-73
2022/10/13 03:51:38;;;;;;;;;;;14.20;99.90;;;;;;7340076;19;108798;-75
2022/10/13 03:54:05;;;;;;;;;;;14.20;99.90;;;;;;7338068;19;110257;-75
2022/10/13 03:56:32;;;;;;;;;;;14.20;99.90;;;;;;7336019;19;108949;-75
2022/10/13 03:58:59;;;;;;;;;;;14.20;99.90;;;;;;7341427;19;109249;-75
2022/10/13 04:01:27;;;;;;;;;;;14.10;99.90;;;;;;7335834;19;109146;-75
2022/10/13 04:03:55;;;;;;;;;;;14.10;99.90;;;;;;7340345;19;110123;-75
2022/10/13 04:06:23;;;;;;;;;;;14.10;99.90;;;;;;7333396;19;109227;-75
2022/10/13 04:08:50;;;;;;;;;;;14.10;99.90;;;;;;7339789;19;109183;-75
2022/10/13 04:11:17;;;;;;;;;;;14.10;99.90;;;;;;7336981;19;108491;-75
2022/10/13 04:13:45;;;;;;;;;;;14.10;99.90;;;;;;7338646;19;110836;-75
2022/10/13 04:16:13;;;;;;;;;;;14.10;99.90;;;;;;7337209;19;109537;-75
2022/10/13 04:18:41;;;;;;;;;;;14.10;99.90;;;;;;7345117;19;110001;-75
2022/10/13 04:21:11;;;;;;;;;;;14.10;99.90;;;;;;7336003;19;109754;-76
2022/10/13 04:23:38;;;;;;;;;;;14.10;99.90;;;;;;7339026;19;112333;-75
2022/10/13 04:26:05;;;;;;;;;;;14.10;99.90;;;;;;7337616;19;110042;-75
2022/10/13 04:28:34;;;;;;;;;;;14.10;99.90;;;;;;7337990;19;108486;-75
2022/10/13 04:31:02;;;;;;;;;;;14.10;99.90;;;;;;7336994;19;109122;-75
2022/10/13 04:33:28;;;;;;;;;;;14.10;99.90;;;;;;7336332;19;109045;-76
2022/10/13 04:35:56;;;;;;;;;;;14.10;99.90;;;;;;7336812;19;110274;-73
2022/10/13 04:38:22;;;;;;;;;;;14.10;99.90;;;;;;7337431;19;111368;-75
2022/10/13 04:40:49;;;;;;;;;;;14.10;99.90;;;;;;7341786;19;109741;-75
2022/10/13 04:43:16;;;;;;;;;;;14.10;99.90;;;;;;7337486;19;109113;-75
2022/10/13 04:45:43;;;;;;;;;;;14.10;99.90;;;;;;7338915;19;110127;-75
2022/10/13 04:48:10;;;;;;;;;;;14.10;99.90;;;;;;7336291;19;108539;-75
2022/10/13 04:50:37;;;;;;;;;;;14.20;99.90;;;;;;7337267;19;109300;-75
2022/10/13 04:53:04;;;;;;;;;;;14.10;99.90;;;;;;7336975;19;111290;-75
2022/10/13 04:55:33;;;;;;;;;;;14.10;99.90;;;;;;7337711;19;109346;-73
2022/10/13 04:58:00;;;;;;;;;;;14.10;99.90;;;;;;7338043;19;110089;-76
2022/10/13 05:00:27;;;;;;;;;;;14.10;99.90;;;;;;7336324;19;110237;-75
2022/10/13 05:02:54;;;;;;;;;;;14.10;99.90;;;;;;7342263;19;111632;-72
2022/10/13 05:05:21;;;;;;;;;;;14.10;99.90;;;;;;7334145;19;113101;-75
2022/10/13 05:07:48;;;;;;;;;;;14.10;99.90;;;;;;7337226;19;108857;-74
2022/10/13 05:10:15;;;;;;;;;;;14.10;99.90;;;;;;7335322;19;109570;-75
2022/10/13 05:12:42;;;;;;;;;;;14.10;99.90;;;;;;7333437;19;111328;-72
2022/10/13 05:15:09;;;;;;;;;;;14.10;99.90;;;;;;7334861;19;108800;-75
2022/10/13 05:17:36;;;;;;;;;;;14.10;99.90;;;;;;7335547;19;110057;-73
2022/10/13 05:20:03;;;;;;;;;;;14.10;99.90;;;;;;7334423;19;110386;-75
2022/10/13 05:22:30;;;;;;;;;;;14.10;99.90;;;;;;7335357;19;109375;-75
2022/10/13 05:24:56;;;;;;;;;;;14.10;99.90;;;;;;7338403;19;112156;-77
2022/10/13 05:27:23;;;;;;;;;;;14.10;99.90;;;;;;7335604;19;108712;-72
2022/10/13 05:29:50;;;;;;;;;;;14.10;99.90;;;;;;7336338;19;109310;-73
2022/10/13 05:32:17;;;;;;;;;;;14.10;99.90;;;;;;7327227;19;110889;-73
2022/10/13 05:34:46;;;;;;;;;;;14.10;99.90;;;;;;7335727;19;108921;-73
2022/10/13 05:37:15;;;;;;;;;;;14.10;99.90;;;;;;7335948;19;112365;-73
2022/10/13 05:39:43;;;;;;;;;;;14.10;99.90;;;;;;7325233;19;113017;-69
2022/10/13 05:42:14;;;;;;;;;;;14.10;99.90;;;;;;7335912;19;114393;-69
2022/10/13 05:44:41;;;;;;;;;;;14.10;99.90;;;;;;7335113;19;108783;-68
2022/10/13 05:47:08;;;;;;;;;;;14.10;99.90;;;;;;7340554;19;109696;-67
2022/10/13 05:49:38;;;;;;;;;;;14.10;99.90;;;;;;7335201;19;109150;-67
2022/10/13 05:52:07;;;;;;;;;;;14.00;99.90;;;;;;7333198;19;110606;-66
2022/10/13 05:54:36;;;;;;;;;;;14.00;99.90;;;;;;7336378;19;109134;-67
2022/10/13 05:57:05;;;;;;;;;;;14.00;99.90;;;;;;7336195;19;110068;-68
2022/10/13 05:59:34;;;;;;;;;;;14.00;99.90;;;;;;7335334;19;109671;-67
2022/10/13 06:02:01;;;;;;;;;;;14.00;99.90;;;;;;7332931;19;113058;-66
2022/10/13 06:04:34;;;;;;;;;;;14.00;99.90;;;;;;7332072;19;109120;-66
2022/10/13 06:07:01;;;;;;;;;;;14.00;99.90;;;;;;7335032;19;110922;-66
2022/10/13 06:09:33;;;;;;;;;;;14.00;99.90;;;;;;7339532;19;108625;-66
2022/10/13 06:12:00;;;;;;;;;;;14.00;99.90;;;;;;7334075;19;109536;-66
2022/10/13 06:14:27;;;;;;;;;;;14.00;99.90;;;;;;7333942;19;109072;-67
2022/10/13 06:16:55;;;;;;;;;;;14.00;99.90;;;;;;7334721;19;112102;-67
2022/10/13 06:19:22;;;;;;;;;;;14.00;99.90;;;;;;7333835;19;109094;-66
2022/10/13 06:21:49;;;;;;;;;;;14.00;99.90;;;;;;7332000;19;108467;-66
2022/10/13 06:24:16;;;;;;;;;;;14.00;99.90;;;;;;7332687;19;109321;-67
2022/10/13 06:26:42;;;;;;;;;;;14.00;99.90;;;;;;7334606;19;109241;-66
2022/10/13 06:29:10;;;;;;;;;;;14.00;99.90;;;;;;7342229;19;109328;-67
2022/10/13 06:31:36;;;;;;;;;;;14.00;99.90;;;;;;7338596;19;109235;-67
2022/10/13 06:34:03;;;;;;;;;;;14.00;99.90;;;;;;7334560;19;108972;-66
2022/10/13 06:36:30;;;;;;;;;;;14.00;99.90;;;;;;7331386;19;109664;-67
2022/10/13 06:38:57;;;;;;;;;;;14.00;99.90;;;;;;7332766;19;111467;-66
2022/10/13 06:41:24;;;;;;;;;;;14.00;99.90;;;;;;7331629;19;109802;-67
2022/10/13 06:43:51;;;;;;;;;;;14.00;99.90;;;;;;7334350;19;109094;-66
2022/10/13 06:46:18;;;;;;;;;;;14.00;99.90;;;;;;7331965;19;109591;-67
2022/10/13 06:48:47;;;;;;;;;;;14.00;99.90;;;;;;7332256;19;109601;-66
2022/10/13 06:51:14;;;;;;;;;;;14.00;99.90;;;;;;7339906;19;112584;-66
2022/10/13 06:53:41;;;;;;;;;;;14.10;99.90;;;;;;7332548;19;108429;-66
2022/10/13 06:56:08;;;;;;;;;;;14.10;99.90;;;;;;7332767;19;109160;-66
2022/10/13 06:58:36;;;;;;;;;;;14.10;99.90;;;;;;7332964;19;110261;-66
2022/10/13 07:01:04;;;;;;;;;;;14.10;99.90;;;;;;7335098;19;108729;-66
2022/10/13 07:03:31;;;;;;;;;;;14.10;99.90;;;;;;7332979;19;109513;-66
2022/10/13 07:06:01;;;;;;;;;;;14.20;99.90;;;;;;7333360;19;110411;-66
2022/10/13 07:08:28;;;;;;;;;;;14.20;99.90;;;;;;7334204;19;108655;-66
2022/10/13 07:10:56;;;;;;;;;;;14.20;99.90;;;;;;7334617;19;109066;-66
2022/10/13 07:13:23;;;;;;;;;;;14.20;99.90;;;;;;7338424;19;109479;-66
2022/10/13 07:15:50;;;;;;;;;;;14.20;99.90;;;;;;7332852;19;108245;-66
2022/10/13 07:18:17;;;;;;;;;;;14.20;99.90;;;;;;7331457;19;109410;-66
2022/10/13 07:20:44;;;;;;;;;;;14.20;99.90;;;;;;7333588;19;109186;-66
2022/10/13 07:23:11;;;;;;;;;;;14.30;99.90;;;;;;7331242;19;109776;-66
2022/10/13 07:25:38;;;;;;;;;;;14.30;99.90;;;;;;7330884;19;110899;-64
2022/10/13 07:28:04;;;;;;;;;;;14.30;99.90;;;;;;7332892;19;108761;-65
2022/10/13 07:30:31;;;;;;;;;;;14.30;99.90;;;;;;7329492;19;109290;-65
2022/10/13 07:32:59;;;;;;;;;;;14.30;99.90;;;;;;7334995;19;109270;-64
2022/10/13 07:35:25;;;;;;;;;;;14.30;99.90;;;;;;7342060;19;108787;-65
2022/10/13 07:37:56;;;;;;;;;;;14.40;99.90;;;;;;7340624;19;110263;-65
2022/10/13 07:40:23;;;;;;;;;;;14.40;99.90;;;;;;7338555;19;108519;-65
2022/10/13 07:42:50;;;;;;;;;;;14.40;99.90;;;;;;7340289;19;108556;-67
2022/10/13 07:45:17;;;;;;;;;;;14.50;99.90;;;;;;7337031;19;109411;-65
2022/10/13 07:47:44;;;;;;;;;;;14.50;99.90;;;;;;7340608;19;115747;-67
2022/10/13 07:50:11;;;;;;;;;;;14.50;99.90;;;;;;7336973;19;108708;-67
2022/10/13 07:52:38;;;;;;;;;;;14.60;99.90;;;;;;7340463;19;110642;-67
2022/10/13 07:55:05;;;;;;;;;;;14.60;99.90;;;;;;7340745;19;108819;-67
2022/10/13 07:57:32;;;;;;;;;;;14.60;99.90;;;;;;7342723;19;109589;-68
2022/10/13 07:59:59;;;;;;;;;;;14.60;99.90;;;;;;7340452;19;114774;-67
2022/10/13 08:02:26;;;;;;;;;;;14.70;99.90;;;;;;7339517;19;108872;-68
2022/10/13 08:04:53;;;;;;;;;;;14.70;99.90;;;;;;7338770;19;110513;-66
2022/10/13 08:07:21;;;;;;;;;;;14.70;99.90;;;;;;7337020;19;109157;-67
2022/10/13 08:09:48;;;;;;;;;;;14.70;99.90;;;;;;7338141;19;109816;-67
2022/10/13 08:12:15;;;;;;;;;;;14.70;99.90;;;;;;7336944;19;108963;-66
2022/10/13 08:14:42;;;;;;;;;;;14.70;99.90;;;;;;7339407;19;108732;-68
2022/10/13 08:17:09;;;;;;;;;;;14.70;99.90;;;;;;7339222;19;111602;-67
2022/10/13 08:19:36;;;;;;;;;;;14.70;99.90;;;;;;7344854;19;109227;-67
2022/10/13 08:22:03;;;;;;;;;;;14.70;99.90;;;;;;7340297;19;109306;-66
2022/10/13 08:24:35;;;;;;;;;;;14.70;99.90;;;;;;7337641;19;109128;-66
2022/10/13 08:27:02;;;;;;;;;;;14.70;99.90;;;;;;7337359;19;108327;-66
2022/10/13 08:29:29;;;;;;;;;;;14.70;99.90;;;;;;7337265;19;109247;-67
2022/10/13 08:31:56;;;;;;;;;;;14.70;99.90;;;;;;7336881;19;109104;-67
2022/10/13 08:34:23;;;;;;;;;;;14.70;99.90;;;;;;7337441;19;109264;-67
2022/10/13 08:36:52;;;;;;;;;;;14.80;99.90;;;;;;7336936;19;108181;-67
2022/10/13 08:39:19;;;;;;;;;;;14.80;99.90;;;;;;7341975;19;109321;-68
2022/10/13 08:41:47;;;;;;;;;;;14.80;99.90;;;;;;7338650;19;109130;-67
2022/10/13 08:44:20;;;;;;;;;;;14.80;99.90;;;;;;7337212;19;109116;-70
2022/10/13 08:47:11;;;;;;;;;;;14.90;99.90;;;;;;7338028;19;109147;-67
2022/10/13 08:49:39;;;;;;;;;;;14.90;99.90;;;;;;7337321;19;108611;-68
2022/10/13 08:52:10;;;;;;;;;;;14.90;99.90;;;;;;7336141;19;111690;-66
2022/10/13 08:54:37;;;;;;;;;;;15.00;99.90;;;;;;7338526;19;109293;-68
2022/10/13 08:57:05;;;;;;;;;;;15.10;99.90;;;;;;7336057;19;110573;-70
2022/10/13 08:59:32;;;;;;;;;;;15.20;99.90;;;;;;7335751;19;109251;-67
2022/10/13 09:02:00;;;;;;;;;;;15.20;99.90;;;;;;7340433;19;108999;-67
2022/10/13 09:04:35;;;;;;;;;;;15.30;99.90;;;;;;7335644;19;109152;-67
2022/10/13 09:07:05;;;;;;;;;;;15.40;99.90;;;;;;7338011;19;109037;-66
2022/10/13 09:09:32;;;;;;;;;;;15.50;99.90;;;;;;7335388;19;108248;-68
2022/10/13 09:11:59;;;;;;;;;;;15.50;99.90;;;;;;7336649;19;111593;-66
2022/10/13 09:14:31;;;;;;;;;;;15.50;99.90;;;;;;7336207;19;108723;-70
2022/10/13 09:17:18;;;;;;;;;;;15.60;99.90;;;;;;7337717;19;109076;-67
2022/10/13 09:20:11;;;;;;;;;;;15.60;99.90;;;;;;7339042;19;109714;-67
2022/10/13 09:22:38;;;;;;;;;;;15.60;99.90;;;;;;7334378;19;109049;-66
2022/10/13 09:25:06;;;;;;;;;;;15.60;99.90;;;;;;7341495;19;109363;-67
2022/10/13 09:27:44;;;;;;;;;;;15.70;99.90;;;;;;7335183;19;108491;-66
2022/10/13 09:30:24;;;;;;;;;;;15.70;99.90;;;;;;7334638;19;108376;-67
2022/10/13 09:33:14;;;;;;;;;;;15.70;99.90;;;;;;7335128;19;109158;-66
2022/10/13 09:35:43;;;;;;;;;;;15.80;99.90;;;;;;7335733;19;108465;-66
2022/10/13 09:38:15;;;;;;;;;;;15.80;99.90;;;;;;7336080;19;108870;-67
2022/10/13 09:40:43;;;;;;;;;;;15.80;99.90;;;;;;7333297;19;110803;-67
2022/10/13 09:43:27;;;;;;;;;;;15.80;99.90;;;;;;7335032;19;109632;-67
2022/10/13 09:45:54;;;;;;;;;;;15.90;99.90;;;;;;7337505;19;108817;-66
2022/10/13 09:48:41;;;;;;;;;;;15.90;99.90;;;;;;7341108;19;109697;-67
2022/10/13 09:51:25;;;;;;;;;;;15.80;99.90;;;;;;7336164;19;108589;-67
2022/10/13 09:53:52;;;;;;;;;;;15.80;99.90;;;;;;7335860;19;109327;-67
2022/10/13 09:56:24;;;;;;;;;;;15.80;99.90;;;;;;7332603;19;108491;-66
2022/10/13 09:59:06;;;;;;;;;;;15.70;99.90;;;;;;7335535;19;108646;-67
2022/10/13 10:01:35;;;;;;;;;;;15.70;99.90;;;;;;7333905;19;109320;-65
2022/10/13 10:04:05;;;;;;;;;;;15.70;99.90;;;;;;7337053;19;108722;-65
2022/10/13 10:06:32;;;;;;;;;;;15.80;99.90;;;;;;7334798;19;108826;-65
2022/10/13 10:09:05;;;;;;;;;;;15.80;99.90;;;;;;7335002;19;109600;-65
2022/10/13 10:11:34;;;;;;;;;;;15.80;99.90;;;;;;7341619;19;108981;-65
2022/10/13 10:14:21;;;;;;;;;;;15.80;99.90;;;;;;7334963;19;109166;-65
2022/10/13 10:16:52;;;;;;;;;;;15.80;99.90;;;;;;7335752;19;109397;-65
2022/10/13 10:19:23;;;;;;;;;;;15.80;99.90;;;;;;7334213;19;113921;-65
2022/10/13 10:21:50;;;;;;;;;;;15.70;99.90;;;;;;7334312;19;109486;-65
2022/10/13 10:24:23;;;;;;;;;;;15.60;99.90;;;;;;7334944;19;109674;-65
2022/10/13 10:26:54;;;;;;;;;;;15.60;99.90;;;;;;7335256;19;109589;-65
2022/10/13 10:29:40;;;;;;;;;;;15.60;99.90;;;;;;7334105;19;110101;-65
2022/10/13 10:32:07;;;;;;;;;;;15.60;99.90;;;;;;7334651;19;108462;-65
2022/10/13 10:34:41;;;;;;;;;;;15.60;99.90;;;;;;7338440;19;109143;-66
2022/10/13 10:37:19;;;;;;;;;;;15.60;99.90;;;;;;7336239;19;108974;-66
2022/10/13 10:39:53;;;;;;;;;;;15.60;99.90;;;;;;7335309;19;108511;-65
2022/10/13 10:42:39;;;;;;;;;;;15.60;99.90;;;;;;7336409;19;110599;-66
2022/10/13 10:45:16;;;;;;;;;;;15.60;99.90;;;;;;7334003;19;108443;-66
2022/10/13 10:47:45;;;;;;;;;;;15.70;99.90;;;;;;7336760;19;109572;-66
2022/10/13 10:50:13;;;;;;;;;;;15.70;99.90;;;;;;7334847;19;110363;-66
2022/10/13 10:52:46;;;;;;;;;;;15.70;99.90;;;;;;7338502;19;108376;-66
2022/10/13 10:55:19;;;;;;;;;;;15.70;99.90;;;;;;7339245;19;109101;-66
2022/10/13 10:58:05;;;;;;;;;;;15.70;99.90;;;;;;7333539;19;108413;-66
2022/10/13 11:00:37;;;;;;;;;;;15.70;99.90;;;;;;7333493;19;109628;-65
2022/10/13 11:03:04;;;;;;;;;;;15.70;99.90;;;;;;7327494;19;109604;-65
2022/10/13 11:05:57;;;;;;;;;;;15.70;99.90;;;;;;7331053;19;109337;-66
2022/10/13 11:08:39;;;;;;;;;;;15.70;99.90;;;;;;7334342;19;108223;-66
2022/10/13 11:11:18;;;;;;;;;;;15.70;99.90;;;;;;7339588;19;109908;-66
2022/10/13 11:13:58;;;;;;;;;;;15.80;99.90;;;;;;7339988;19;108477;-65
2022/10/13 11:16:34;;;;;;;;;;;15.80;99.90;;;;;;7341159;19;108688;-66
2022/10/13 11:19:05;;;;;;;;;;;15.80;99.90;;;;;;7343798;19;109249;-65
2022/10/13 11:21:51;;;;;;;;;;;15.80;99.90;;;;;;7339385;19;109201;-66
2022/10/13 11:24:33;;;;;;;;;;;15.80;99.90;;;;;;7337898;19;110083;-65
2022/10/13 11:27:15;;;;;;;;;;;15.80;99.90;;;;;;7339467;19;109831;-65
2022/10/13 11:29:47;;;;;;;;;;;15.90;99.90;;;;;;7341421;19;108910;-66
2022/10/13 11:32:27;;;;;;;;;;;15.90;99.90;;;;;;7339174;19;110018;-66
2022/10/13 11:35:01;;;;;;;;;;;15.90;99.90;;;;;;7339465;19;108319;-66
2022/10/13 11:37:37;;;;;;;;;;;15.90;99.90;;;;;;7340098;19;109169;-66
2022/10/13 11:40:14;;;;;;;;;;;15.90;99.90;;;;;;7338820;19;109459;-66
2022/10/13 11:42:44;;;;;;;;;;;15.90;99.90;;;;;;7345764;19;108654;-66
2022/10/13 11:45:11;;;;;;;;;;;15.90;99.90;;;;;;7337426;19;109263;-69
2022/10/13 11:47:56;;;;;;;;;;;16.00;99.90;;;;;;7342117;19;109085;-67
2022/10/13 11:50:50;;;;;;;;;;;16.00;99.90;;;;;;7339353;19;108953;-66
2022/10/13 11:53:20;;;;;;;;;;;16.00;99.90;;;;;;7337755;19;110167;-66
2022/10/13 11:55:50;;;;;;;;;;;16.00;99.90;;;;;;7338483;19;109315;-66
2022/10/13 11:58:21;;;;;;;;;;;16.00;99.90;;;;;;7341231;19;108534;-69
2022/10/13 12:00:49;;;;;;;;;;;16.00;99.90;;;;;;7338799;19;109740;-66
2022/10/13 12:03:21;;;;;;;;;;;16.10;99.90;;;;;;7338147;19;108485;-68
2022/10/13 12:05:49;;;;;;;;;;;16.10;99.90;;;;;;7343465;19;109954;-68
2022/10/13 12:08:17;;;;;;;;;;;16.10;99.90;;;;;;7338325;19;109035;-67
2022/10/13 12:10:44;;;;;;;;;;;16.10;99.90;;;;;;7339487;19;109646;-67
2022/10/13 12:13:19;;;;;;;;;;;16.00;99.90;;;;;;7338036;19;109909;-67
2022/10/13 12:15:46;;;;;;;;;;;16.00;99.90;;;;;;7340571;19;108940;-67
2022/10/13 12:18:24;;;;;;;;;;;16.00;99.90;;;;;;7337584;19;108689;-67
2022/10/13 12:20:55;;;;;;;;;;;16.10;99.90;;;;;;7335797;19;109568;-67
2022/10/13 12:23:22;;;;;;;;;;;16.10;99.90;;;;;;7338956;19;108869;-67
2022/10/13 12:25:55;;;;;;;;;;;16.10;99.90;;;;;;7337883;19;110830;-68
2022/10/13 12:28:24;;;;;;;;;;;16.10;99.90;;;;;;7343170;19;109902;-67
2022/10/13 12:30:52;;;;;;;;;;;16.00;99.90;;;;;;7339270;19;109180;-67
2022/10/13 12:33:22;;;;;;;;;;;16.00;99.90;;;;;;7337289;19;111106;-66
2022/10/13 12:35:49;;;;;;;;;;;16.10;99.90;;;;;;7338792;19;109387;-67
2022/10/13 12:38:19;;;;;;;;;;;16.10;99.90;;;;;;7336895;19;109443;-67
2022/10/13 12:40:47;;;;;;;;;;;16.10;99.90;;;;;;7338782;19;109555;-66
2022/10/13 12:43:18;;;;;;;;;;;16.10;99.90;;;;;;7337241;19;112233;-66
2022/10/13 12:45:45;;;;;;;;;;;16.10;99.90;;;;;;7338249;19;108805;-67
2022/10/13 12:48:31;;;;;;;;;;;16.20;99.90;;;;;;7337354;19;109378;-66
2022/10/13 12:51:28;;;;;;;;;;;16.20;99.90;;;;;;7345003;19;108291;-68
2022/10/13 12:53:55;;;;;;;;;;;16.30;99.90;;;;;;7338099;19;111107;-66
2022/10/13 12:56:29;;;;;;;;;;;16.30;99.90;;;;;;7336420;19;108390;-66
2022/10/13 12:58:57;;;;;;;;;;;16.30;99.90;;;;;;7338102;19;108776;-66
2022/10/13 13:01:31;;;;;;;;;;;16.30;99.90;;;;;;7336148;19;110470;-66
2022/10/13 13:04:00;;;;;;;;;;;16.30;99.90;;;;;;7335970;19;108973;-66
2022/10/13 13:06:32;;;;;;;;;;;16.40;99.90;;;;;;7335624;19;108875;-66
2022/10/13 13:09:17;;;;;;;;;;;16.40;99.90;;;;;;7336769;19;110033;-66
2022/10/13 13:11:44;;;;;;;;;;;16.40;99.90;;;;;;7343444;19;108476;-66
2022/10/13 13:14:29;;;;;;;;;;;16.50;99.90;;;;;;7335976;19;110811;-66
2022/10/13 13:17:08;;;;;;;;;;;16.50;99.90;;;;;;7337723;19;108823;-66
2022/10/13 13:19:35;;;;;;;;;;;16.50;99.90;;;;;;7337516;19;108382;-66
2022/10/13 13:22:03;;;;;;;;;;;16.50;99.90;;;;;;7337867;19;110566;-66
2022/10/13 13:24:30;;;;;;;;;;;16.50;99.90;;;;;;7336710;19;108552;-66
2022/10/13 13:27:25;;;;;;;;;;;16.50;99.90;;;;;;7335322;19;109229;-66
2022/10/13 13:29:55;;;;;;;;;;;16.50;99.90;;;;;;7337059;19;109156;-66
2022/10/13 13:32:23;;;;;;;;;;;16.40;99.90;;;;;;7333435;19;109034;-66
2022/10/13 13:34:50;;;;;;;;;;;16.50;99.90;;;;;;7341594;19;109077;-66
2022/10/13 13:37:25;;;;;;;;;;;16.40;99.90;;;;;;7336033;19;109064;-66
2022/10/13 13:39:52;;;;;;;;;;;16.40;99.90;;;;;;7335656;19;109459;-66
2022/10/13 13:42:20;;;;;;;;;;;16.30;99.90;;;;;;7335137;19;110984;-66
2022/10/13 13:44:47;;;;;;;;;;;16.30;99.90;;;;;;7334512;19;110419;-66
2022/10/13 13:47:21;;;;;;;;;;;16.30;99.90;;;;;;7336720;19;109016;-66
2022/10/13 13:49:49;;;;;;;;;;;16.20;99.90;;;;;;7334672;19;110525;-66
2022/10/13 13:52:17;;;;;;;;;;;16.20;99.90;;;;;;7338287;19;108458;-66
2022/10/13 13:54:44;;;;;;;;;;;16.30;99.90;;;;;;7335902;19;109082;-66
2022/10/13 13:57:12;;;;;;;;;;;16.20;99.90;;;;;;7340844;19;109232;-66
2022/10/13 13:59:39;;;;;;;;;;;16.20;99.90;;;;;;7336357;19;108239;-66
2022/10/13 14:02:06;;;;;;;;;;;16.20;99.90;;;;;;7334768;19;109362;-66
2022/10/13 14:04:33;;;;;;;;;;;16.20;99.90;;;;;;7333457;19;108681;-66
2022/10/13 14:07:00;;;;;;;;;;;16.20;99.90;;;;;;7336973;19;108553;-66
2022/10/13 14:09:27;;;;;;;;;;;16.10;99.90;;;;;;7334047;19;109202;-66
2022/10/13 14:11:54;;;;;;;;;;;16.10;99.90;;;;;;7336344;19;110709;-66
2022/10/13 14:14:21;;;;;;;;;;;16.10;99.90;;;;;;7334061;19;109372;-66
2022/10/13 14:16:48;;;;;;;;;;;16.10;99.90;;;;;;7336700;19;108992;-66
2022/10/13 14:19:15;;;;;;;;;;;16.10;99.90;;;;;;7338860;19;109646;-66